sensor_id;sensor_type;location;lat;lon;timestamp;pressure;altitude;pressure_sealevel;temperature;humidity
58761;BME280;44529;47.464;19.014;2023-03-19T00:01:37;100632.72;;;5.56;69.05
58761;BME280;44529;47.464;19.014;2023-03-19T00:04:39;100628.13;;;5.47;69.51
58761;BME280;44529;47.464;19.014;2023-03-19T00:07:42;100625.47;;;5.41;69.84
58761;BME280;44529;47.464;19.014;2023-03-19T00:10:45;100621.72;;;5.37;69.85
58761;BME280;44529;47.464;19.014;2023-03-19T00:13:47;100623.31;;;5.38;69.35
58761;BME280;44529;47.464;19.014;2023-03-19T00:16:50;100622.50;;;5.38;69.94
58761;BME280;44529;47.464;19.014;2023-03-19T00:19:52;100620.91;;;5.32;69.68
58761;BME280;44529;47.464;19.014;2023-03-19T00:22:55;100613.09;;;5.20;70.99
58761;BME280;44529;47.464;19.014;2023-03-19T00:25:57;100618.44;;;5.15;70.70
58761;BME280;44529;47.464;19.014;2023-03-19T00:29:00;100617.13;;;5.12;70.92
58761;BME280;44529;47.464;19.014;2023-03-19T00:32:02;100614.97;;;5.04;71.58
58761;BME280;44529;47.464;19.014;2023-03-19T00:35:06;100621.66;;;5.02;71.81
58761;BME280;44529;47.464;19.014;2023-03-19T00:38:08;100610.94;;;5.02;71.35
58761;BME280;44529;47.464;19.014;2023-03-19T00:41:11;100605.81;;;4.95;71.76
58761;BME280;44529;47.464;19.014;2023-03-19T00:44:13;100610.13;;;4.91;72.49
58761;BME280;44529;47.464;19.014;2023-03-19T00:47:17;100604.75;;;4.91;72.06
58761;BME280;44529;47.464;19.014;2023-03-19T00:50:19;100603.66;;;4.77;72.47
58761;BME280;44529;47.464;19.014;2023-03-19T00:53:21;100598.53;;;4.75;72.49
58761;BME280;44529;47.464;19.014;2023-03-19T00:56:24;100602.06;;;4.86;72.34
58761;BME280;44529;47.464;19.014;2023-03-19T00:59:26;100600.72;;;4.83;72.49
58761;BME280;44529;47.464;19.014;2023-03-19T01:02:30;100593.75;;;4.87;72.74
58761;BME280;44529;47.464;19.014;2023-03-19T01:05:35;100596.44;;;4.93;72.08
58761;BME280;44529;47.464;19.014;2023-03-19T01:08:38;100600.97;;;4.77;72.76
58761;BME280;44529;47.464;19.014;2023-03-19T01:11:40;100597.16;;;4.62;73.27
58761;BME280;44529;47.464;19.014;2023-03-19T01:14:43;100591.31;;;4.66;73.23
58761;BME280;44529;47.464;19.014;2023-03-19T01:17:46;100595.34;;;4.73;72.46
58761;BME280;44529;47.464;19.014;2023-03-19T01:20:48;100605.22;;;4.68;72.71
58761;BME280;44529;47.464;19.014;2023-03-19T01:23:50;100604.44;;;4.67;72.98
58761;BME280;44529;47.464;19.014;2023-03-19T01:26:53;100598.22;;;4.56;73.42
58761;BME280;44529;47.464;19.014;2023-03-19T01:29:57;100606.00;;;4.58;73.33
58761;BME280;44529;47.464;19.014;2023-03-19T01:33:00;100596.06;;;4.53;73.03
58761;BME280;44529;47.464;19.014;2023-03-19T01:36:03;100596.84;;;4.49;73.83
58761;BME280;44529;47.464;19.014;2023-03-19T01:39:07;100599.81;;;4.47;73.29
58761;BME280;44529;47.464;19.014;2023-03-19T01:42:09;100591.22;;;4.50;73.50
58761;BME280;44529;47.464;19.014;2023-03-19T01:45:31;100598.75;;;4.53;73.31
58761;BME280;44529;47.464;19.014;2023-03-19T01:51:42;100595.53;;;4.51;73.23
58761;BME280;44529;47.464;19.014;2023-03-19T01:54:47;100607.88;;;4.52;73.01
58761;BME280;44529;47.464;19.014;2023-03-19T01:57:49;100599.25;;;4.40;73.28
58761;BME280;44529;47.464;19.014;2023-03-19T02:00:53;100606.16;;;4.26;74.17
58761;BME280;44529;47.464;19.014;2023-03-19T02:03:57;100602.16;;;4.33;73.39
58761;BME280;44529;47.464;19.014;2023-03-19T02:07:02;100605.34;;;4.30;73.31
58761;BME280;44529;47.464;19.014;2023-03-19T02:10:08;100599.41;;;4.23;73.81
58761;BME280;44529;47.464;19.014;2023-03-19T02:13:11;100608.25;;;4.24;74.02
58761;BME280;44529;47.464;19.014;2023-03-19T02:16:15;100596.47;;;4.20;74.02
58761;BME280;44529;47.464;19.014;2023-03-19T02:19:26;100589.69;;;4.02;75.29
58761;BME280;44529;47.464;19.014;2023-03-19T02:22:32;100598.53;;;4.02;75.04
58761;BME280;44529;47.464;19.014;2023-03-19T02:28:47;100597.72;;;4.02;74.86
58761;BME280;44529;47.464;19.014;2023-03-19T02:31:50;100590.75;;;4.01;74.60
58761;BME280;44529;47.464;19.014;2023-03-19T02:34:53;100585.38;;;3.96;74.84
58761;BME280;44529;47.464;19.014;2023-03-19T02:37:55;100591.44;;;3.86;75.50
58761;BME280;44529;47.464;19.014;2023-03-19T02:41:02;100591.94;;;3.78;75.83
58761;BME280;44529;47.464;19.014;2023-03-19T02:44:06;100590.91;;;3.84;75.39
58761;BME280;44529;47.464;19.014;2023-03-19T02:47:11;100578.03;;;3.76;76.57
58761;BME280;44529;47.464;19.014;2023-03-19T02:50:13;100578.84;;;3.76;75.99
58761;BME280;44529;47.464;19.014;2023-03-19T02:53:16;100580.97;;;3.74;75.84
58761;BME280;44529;47.464;19.014;2023-03-19T02:56:18;100578.06;;;3.86;75.25
58761;BME280;44529;47.464;19.014;2023-03-19T02:59:21;100579.13;;;3.80;75.46
58761;BME280;44529;47.464;19.014;2023-03-19T03:02:24;100577.53;;;3.84;75.26
58761;BME280;44529;47.464;19.014;2023-03-19T03:05:26;100573.19;;;3.73;76.14
58761;BME280;44529;47.464;19.014;2023-03-19T03:08:29;100579.09;;;3.75;76.03
58761;BME280;44529;47.464;19.014;2023-03-19T03:11:31;100585.50;;;3.74;75.75
58761;BME280;44529;47.464;19.014;2023-03-19T03:14:33;100583.88;;;3.73;76.43
58761;BME280;44529;47.464;19.014;2023-03-19T03:17:37;100583.66;;;3.74;76.25
58761;BME280;44529;47.464;19.014;2023-03-19T03:20:39;100576.56;;;3.58;76.66
58761;BME280;44529;47.464;19.014;2023-03-19T03:23:42;100578.78;;;3.71;76.01
58761;BME280;44529;47.464;19.014;2023-03-19T03:26:45;100587.34;;;3.68;76.37
58761;BME280;44529;47.464;19.014;2023-03-19T03:29:49;100589.19;;;3.63;76.26
58761;BME280;44529;47.464;19.014;2023-03-19T03:32:51;100586.37;;;3.47;77.05
58761;BME280;44529;47.464;19.014;2023-03-19T03:35:55;100579.19;;;3.53;76.41
58761;BME280;44529;47.464;19.014;2023-03-19T03:38:58;100584.31;;;3.60;76.25
58761;BME280;44529;47.464;19.014;2023-03-19T03:42:00;100580.63;;;3.61;76.84
58761;BME280;44529;47.464;19.014;2023-03-19T03:45:04;100586.50;;;3.63;76.34
58761;BME280;44529;47.464;19.014;2023-03-19T03:48:06;100584.09;;;3.61;76.75
58761;BME280;44529;47.464;19.014;2023-03-19T03:51:09;100583.25;;;3.56;76.02
58761;BME280;44529;47.464;19.014;2023-03-19T03:54:12;100585.13;;;3.60;76.08
58761;BME280;44529;47.464;19.014;2023-03-19T03:57:15;100577.84;;;3.50;76.19
58761;BME280;44529;47.464;19.014;2023-03-19T04:00:17;100585.97;;;3.61;75.65
58761;BME280;44529;47.464;19.014;2023-03-19T04:03:20;100584.22;;;3.44;76.50
58761;BME280;44529;47.464;19.014;2023-03-19T04:06:24;100592.78;;;3.46;75.62
58761;BME280;44529;47.464;19.014;2023-03-19T04:09:28;100589.97;;;3.63;75.80
58761;BME280;44529;47.464;19.014;2023-03-19T04:12:30;100585.44;;;3.64;74.63
58761;BME280;44529;47.464;19.014;2023-03-19T04:15:33;100584.84;;;3.57;74.85
58761;BME280;44529;47.464;19.014;2023-03-19T04:18:36;100581.09;;;3.58;74.99
58761;BME280;44529;47.464;19.014;2023-03-19T04:21:39;100586.84;;;3.76;74.38
58761;BME280;44529;47.464;19.014;2023-03-19T04:24:42;100579.06;;;3.70;73.83
58761;BME280;44529;47.464;19.014;2023-03-19T04:27:44;100579.63;;;3.77;73.98
58761;BME280;44529;47.464;19.014;2023-03-19T04:30:47;100578.28;;;3.74;73.48
58761;BME280;44529;47.464;19.014;2023-03-19T04:33:50;100571.53;;;3.67;74.10
58761;BME280;44529;47.464;19.014;2023-03-19T04:36:52;100566.97;;;3.62;74.16
58761;BME280;44529;47.464;19.014;2023-03-19T04:39:55;100557.38;;;3.66;73.58
58761;BME280;44529;47.464;19.014;2023-03-19T04:42:58;100559.28;;;3.71;73.87
58761;BME280;44529;47.464;19.014;2023-03-19T04:46:02;100564.12;;;3.74;73.35
58761;BME280;44529;47.464;19.014;2023-03-19T04:49:04;100568.63;;;3.73;72.76
58761;BME280;44529;47.464;19.014;2023-03-19T04:52:07;100576.37;;;3.70;72.93
58761;BME280;44529;47.464;19.014;2023-03-19T04:55:10;100574.19;;;3.62;73.85
58761;BME280;44529;47.464;19.014;2023-03-19T04:58:14;100586.47;;;3.58;73.84
58761;BME280;44529;47.464;19.014;2023-03-19T05:01:17;100587.00;;;3.60;74.20
58761;BME280;44529;47.464;19.014;2023-03-19T05:04:24;100592.16;;;3.71;73.08
58761;BME280;44529;47.464;19.014;2023-03-19T05:07:28;100584.91;;;3.67;73.53
58761;BME280;44529;47.464;19.014;2023-03-19T05:10:32;100587.03;;;3.65;73.69
58761;BME280;44529;47.464;19.014;2023-03-19T05:13:35;100588.19;;;3.79;72.69
58761;BME280;44529;47.464;19.014;2023-03-19T05:16:37;100598.44;;;3.87;72.19
58761;BME280;44529;47.464;19.014;2023-03-19T05:19:40;100593.13;;;3.97;71.92
58761;BME280;44529;47.464;19.014;2023-03-19T05:22:43;100600.66;;;4.00;71.06
58761;BME280;44529;47.464;19.014;2023-03-19T05:25:45;100593.91;;;3.93;71.84
58761;BME280;44529;47.464;19.014;2023-03-19T05:28:50;100596.09;;;4.01;71.16
58761;BME280;44529;47.464;19.014;2023-03-19T05:31:52;100596.34;;;3.94;71.51
58761;BME280;44529;47.464;19.014;2023-03-19T05:34:55;100600.13;;;4.03;70.77
58761;BME280;44529;47.464;19.014;2023-03-19T05:37:57;100602.31;;;4.12;70.82
58761;BME280;44529;47.464;19.014;2023-03-19T05:41:04;100607.09;;;4.04;71.24
58761;BME280;44529;47.464;19.014;2023-03-19T05:44:08;100610.37;;;4.17;71.04
58761;BME280;44529;47.464;19.014;2023-03-19T05:47:11;100606.63;;;4.18;70.49
58761;BME280;44529;47.464;19.014;2023-03-19T05:50:16;100608.53;;;4.22;70.20
58761;BME280;44529;47.464;19.014;2023-03-19T05:53:20;100599.16;;;4.20;70.57
58761;BME280;44529;47.464;19.014;2023-03-19T05:56:24;100609.06;;;4.19;70.72
58761;BME280;44529;47.464;19.014;2023-03-19T05:59:27;100607.78;;;4.32;70.01
58761;BME280;44529;47.464;19.014;2023-03-19T06:02:31;100605.91;;;4.32;70.40
58761;BME280;44529;47.464;19.014;2023-03-19T06:05:35;100616.34;;;4.34;70.95
58761;BME280;44529;47.464;19.014;2023-03-19T06:08:39;100615.81;;;4.37;70.06
58761;BME280;44529;47.464;19.014;2023-03-19T06:11:42;100616.97;;;4.51;69.82
58761;BME280;44529;47.464;19.014;2023-03-19T06:14:52;100617.75;;;4.47;70.26
58761;BME280;44529;47.464;19.014;2023-03-19T06:17:56;100614.53;;;4.50;69.46
58761;BME280;44529;47.464;19.014;2023-03-19T06:20:58;100613.75;;;4.54;69.13
58761;BME280;44529;47.464;19.014;2023-03-19T06:24:01;100616.69;;;4.53;69.33
58761;BME280;44529;47.464;19.014;2023-03-19T06:27:04;100624.72;;;4.53;69.91
58761;BME280;44529;47.464;19.014;2023-03-19T06:30:07;100629.59;;;4.66;69.35
58761;BME280;44529;47.464;19.014;2023-03-19T06:33:11;100636.59;;;4.72;68.42
58761;BME280;44529;47.464;19.014;2023-03-19T06:36:13;100640.87;;;4.73;67.45
58761;BME280;44529;47.464;19.014;2023-03-19T06:39:15;100641.72;;;4.84;68.02
58761;BME280;44529;47.464;19.014;2023-03-19T06:42:19;100647.63;;;4.91;67.03
58761;BME280;44529;47.464;19.014;2023-03-19T06:45:22;100653.53;;;4.93;67.45
58761;BME280;44529;47.464;19.014;2023-03-19T06:48:25;100656.22;;;4.98;67.28
58761;BME280;44529;47.464;19.014;2023-03-19T06:51:27;100655.69;;;5.01;67.63
58761;BME280;44529;47.464;19.014;2023-03-19T06:54:29;100658.91;;;5.08;66.67
58761;BME280;44529;47.464;19.014;2023-03-19T06:57:32;100656.28;;;5.19;66.30
58761;BME280;44529;47.464;19.014;2023-03-19T07:00:34;100651.19;;;5.22;66.22
58761;BME280;44529;47.464;19.014;2023-03-19T07:03:38;100654.16;;;5.31;65.85
58761;BME280;44529;47.464;19.014;2023-03-19T07:06:40;100642.38;;;5.42;65.70
58761;BME280;44529;47.464;19.014;2023-03-19T07:09:42;100643.97;;;5.53;65.62
58761;BME280;44529;47.464;19.014;2023-03-19T07:12:45;100650.94;;;5.64;64.41
58761;BME280;44529;47.464;19.014;2023-03-19T07:15:48;100637.53;;;5.75;63.75
58761;BME280;44529;47.464;19.014;2023-03-19T07:18:50;100639.16;;;5.81;63.44
58761;BME280;44529;47.464;19.014;2023-03-19T07:21:52;100637.00;;;5.83;64.56
58761;BME280;44529;47.464;19.014;2023-03-19T07:24:55;100625.97;;;5.89;62.53
58761;BME280;44529;47.464;19.014;2023-03-19T07:27:57;100629.22;;;5.96;62.77
58761;BME280;44529;47.464;19.014;2023-03-19T07:30:59;100638.88;;;6.08;62.29
58761;BME280;44529;47.464;19.014;2023-03-19T07:34:02;100641.78;;;6.11;61.92
58761;BME280;44529;47.464;19.014;2023-03-19T07:37:05;100636.69;;;6.15;62.24
58761;BME280;44529;47.464;19.014;2023-03-19T07:40:08;100644.47;;;6.21;62.12
58761;BME280;44529;47.464;19.014;2023-03-19T07:43:11;100647.66;;;6.39;60.77
58761;BME280;44529;47.464;19.014;2023-03-19T07:46:13;100648.97;;;6.41;61.25
58761;BME280;44529;47.464;19.014;2023-03-19T07:49:16;100646.06;;;6.38;62.09
58761;BME280;44529;47.464;19.014;2023-03-19T07:52:18;100631.50;;;6.44;59.37
58761;BME280;44529;47.464;19.014;2023-03-19T07:55:21;100639.81;;;6.47;59.08
58761;BME280;44529;47.464;19.014;2023-03-19T07:58:23;100636.84;;;6.54;60.54
58761;BME280;44529;47.464;19.014;2023-03-19T08:01:25;100632.53;;;6.58;60.26
58761;BME280;44529;47.464;19.014;2023-03-19T08:04:28;100632.47;;;6.73;59.88
58761;BME280;44529;47.464;19.014;2023-03-19T08:07:31;100629.75;;;6.84;59.57
58761;BME280;44529;47.464;19.014;2023-03-19T08:10:33;100625.84;;;7.05;59.88
58761;BME280;44529;47.464;19.014;2023-03-19T08:13:38;100622.34;;;7.44;57.07
58761;BME280;44529;47.464;19.014;2023-03-19T08:16:41;100618.25;;;8.09;54.96
58761;BME280;44529;47.464;19.014;2023-03-19T08:19:43;100610.16;;;9.00;52.49
58761;BME280;44529;47.464;19.014;2023-03-19T08:22:48;100609.38;;;9.97;48.58
58761;BME280;44529;47.464;19.014;2023-03-19T08:25:52;100611.50;;;10.83;47.15
58761;BME280;44529;47.464;19.014;2023-03-19T08:28:55;100609.81;;;11.32;44.33
58761;BME280;44529;47.464;19.014;2023-03-19T08:31:57;100612.19;;;12.01;43.23
58761;BME280;44529;47.464;19.014;2023-03-19T08:35:03;100613.84;;;12.50;41.84
58761;BME280;44529;47.464;19.014;2023-03-19T08:38:05;100619.16;;;13.07;41.14
58761;BME280;44529;47.464;19.014;2023-03-19T08:41:08;100612.03;;;13.28;40.10
58761;BME280;44529;47.464;19.014;2023-03-19T08:44:10;100612.63;;;13.60;38.93
58761;BME280;44529;47.464;19.014;2023-03-19T08:47:13;100618.56;;;14.09;37.95
58761;BME280;44529;47.464;19.014;2023-03-19T08:50:16;100617.13;;;14.41;37.65
58761;BME280;44529;47.464;19.014;2023-03-19T08:53:18;100616.13;;;14.84;36.49
58761;BME280;44529;47.464;19.014;2023-03-19T08:56:20;100606.50;;;15.28;35.77
58761;BME280;44529;47.464;19.014;2023-03-19T08:59:23;100608.56;;;15.10;36.33
58761;BME280;44529;47.464;19.014;2023-03-19T09:02:25;100603.37;;;15.17;34.74
58761;BME280;44529;47.464;19.014;2023-03-19T09:05:28;100596.94;;;15.88;34.55
58761;BME280;44529;47.464;19.014;2023-03-19T09:08:31;100598.44;;;15.98;33.42
58761;BME280;44529;47.464;19.014;2023-03-19T09:11:33;100595.72;;;16.35;33.46
58761;BME280;44529;47.464;19.014;2023-03-19T09:14:36;100590.03;;;16.28;33.55
58761;BME280;44529;47.464;19.014;2023-03-19T09:17:39;100597.66;;;16.22;33.39
58761;BME280;44529;47.464;19.014;2023-03-19T09:20:41;100600.22;;;15.82;33.48
58761;BME280;44529;47.464;19.014;2023-03-19T09:23:44;100594.22;;;16.01;33.61
58761;BME280;44529;47.464;19.014;2023-03-19T09:26:46;100592.53;;;16.08;32.52
58761;BME280;44529;47.464;19.014;2023-03-19T09:29:48;100595.25;;;16.20;32.15
58761;BME280;44529;47.464;19.014;2023-03-19T09:32:50;100584.78;;;16.22;33.32
58761;BME280;44529;47.464;19.014;2023-03-19T09:35:53;100587.78;;;16.30;33.44
58761;BME280;44529;47.464;19.014;2023-03-19T09:38:55;100580.03;;;16.07;33.51
58761;BME280;44529;47.464;19.014;2023-03-19T09:45:26;100583.34;;;16.13;32.98
58761;BME280;44529;47.464;19.014;2023-03-19T09:48:37;100573.97;;;15.65;34.51
58761;BME280;44529;47.464;19.014;2023-03-19T09:51:51;100561.59;;;15.47;35.15
58761;BME280;44529;47.464;19.014;2023-03-19T09:54:56;100567.16;;;15.95;33.78
58761;BME280;44529;47.464;19.014;2023-03-19T09:58:14;100565.16;;;16.17;33.03
58761;BME280;44529;47.464;19.014;2023-03-19T10:01:28;100568.75;;;15.96;33.57
58761;BME280;44529;47.464;19.014;2023-03-19T10:11:31;100559.19;;;15.66;33.34
58761;BME280;44529;47.464;19.014;2023-03-19T10:15:24;100563.44;;;15.55;33.90
58761;BME280;44529;47.464;19.014;2023-03-19T10:18:32;100556.59;;;15.94;33.48
58761;BME280;44529;47.464;19.014;2023-03-19T10:21:42;100556.91;;;15.68;33.92
58761;BME280;44529;47.464;19.014;2023-03-19T10:24:47;100546.63;;;15.53;33.40
58761;BME280;44529;47.464;19.014;2023-03-19T10:27:55;100542.94;;;15.36;33.55
58761;BME280;44529;47.464;19.014;2023-03-19T10:31:10;100546.91;;;15.27;34.34
58761;BME280;44529;47.464;19.014;2023-03-19T10:34:32;100541.56;;;15.30;33.52
58761;BME280;44529;47.464;19.014;2023-03-19T10:37:35;100543.59;;;15.21;34.11
58761;BME280;44529;47.464;19.014;2023-03-19T10:40:47;100531.91;;;15.21;33.88
58761;BME280;44529;47.464;19.014;2023-03-19T10:43:53;100525.69;;;15.44;33.90
58761;BME280;44529;47.464;19.014;2023-03-19T10:47:03;100528.28;;;15.29;33.49
58761;BME280;44529;47.464;19.014;2023-03-19T10:50:19;100525.37;;;15.13;33.67
58761;BME280;44529;47.464;19.014;2023-03-19T10:56:28;100503.09;;;14.99;33.03
58761;BME280;44529;47.464;19.014;2023-03-19T10:59:37;100511.13;;;15.28;33.38
58761;BME280;44529;47.464;19.014;2023-03-19T11:02:46;100504.59;;;15.41;33.30
58761;BME280;44529;47.464;19.014;2023-03-19T11:06:05;100504.81;;;15.49;33.06
58761;BME280;44529;47.464;19.014;2023-03-19T11:15:32;100481.22;;;15.53;33.05
58761;BME280;44529;47.464;19.014;2023-03-19T11:18:36;100472.97;;;15.74;33.30
58761;BME280;44529;47.464;19.014;2023-03-19T11:21:40;100468.75;;;15.64;33.57
58761;BME280;44529;47.464;19.014;2023-03-19T11:25:12;100470.59;;;15.84;33.73
58761;BME280;44529;47.464;19.014;2023-03-19T11:28:18;100459.91;;;15.91;33.30
58761;BME280;44529;47.464;19.014;2023-03-19T11:31:27;100451.03;;;16.07;32.71
58761;BME280;44529;47.464;19.014;2023-03-19T11:34:55;100448.53;;;15.89;33.09
58761;BME280;44529;47.464;19.014;2023-03-19T11:38:01;100452.19;;;15.81;32.16
58761;BME280;44529;47.464;19.014;2023-03-19T11:51:01;100434.91;;;16.42;32.05
58761;BME280;44529;47.464;19.014;2023-03-19T11:54:18;100436.84;;;16.41;31.70
58761;BME280;44529;47.464;19.014;2023-03-19T11:57:28;100428.75;;;16.17;32.17
58761;BME280;44529;47.464;19.014;2023-03-19T12:00:45;100434.41;;;16.24;32.18
58761;BME280;44529;47.464;19.014;2023-03-19T12:07:20;100418.16;;;16.56;32.00
58761;BME280;44529;47.464;19.014;2023-03-19T12:20:35;100401.50;;;16.61;31.76
58761;BME280;44529;47.464;19.014;2023-03-19T12:27:32;100392.81;;;16.03;32.09
58761;BME280;44529;47.464;19.014;2023-03-19T12:37:29;100381.66;;;16.20;31.73
58761;BME280;44529;47.464;19.014;2023-03-19T12:47:12;100364.81;;;15.53;31.65
58761;BME280;44529;47.464;19.014;2023-03-19T12:50:17;100364.25;;;15.84;32.00
58761;BME280;44529;47.464;19.014;2023-03-19T12:54:07;100362.22;;;16.09;32.31
58761;BME280;44529;47.464;19.014;2023-03-19T12:57:26;100353.03;;;16.42;31.68
58761;BME280;44529;47.464;19.014;2023-03-19T13:00:43;100345.78;;;16.62;31.59
58761;BME280;44529;47.464;19.014;2023-03-19T13:04:15;100339.47;;;16.45;31.18
58761;BME280;44529;47.464;19.014;2023-03-19T13:07:20;100337.94;;;16.32;30.97
58761;BME280;44529;47.464;19.014;2023-03-19T13:10:25;100331.59;;;16.28;31.29
58761;BME280;44529;47.464;19.014;2023-03-19T13:19:55;100320.91;;;16.51;30.38
58761;BME280;44529;47.464;19.014;2023-03-19T13:23:03;100320.59;;;16.24;30.37
58761;BME280;44529;47.464;19.014;2023-03-19T13:26:09;100316.91;;;16.05;31.03
58761;BME280;44529;47.464;19.014;2023-03-19T13:29:28;100317.50;;;15.98;32.27
58761;BME280;44529;47.464;19.014;2023-03-19T13:32:39;100315.59;;;15.86;31.68
58761;BME280;44529;47.464;19.014;2023-03-19T13:35:44;100318.94;;;15.55;31.74
58761;BME280;44529;47.464;19.014;2023-03-19T13:38:50;100303.81;;;15.70;32.34
58761;BME280;44529;47.464;19.014;2023-03-19T13:42:10;100303.81;;;15.70;32.79
58761;BME280;44529;47.464;19.014;2023-03-19T13:45:36;100307.91;;;15.64;32.60
58761;BME280;44529;47.464;19.014;2023-03-19T13:51:47;100286.69;;;15.45;32.83
58761;BME280;44529;47.464;19.014;2023-03-19T13:54:53;100289.97;;;15.38;32.93
58761;BME280;44529;47.464;19.014;2023-03-19T14:04:29;100286.34;;;15.59;33.34
58761;BME280;44529;47.464;19.014;2023-03-19T14:07:35;100277.66;;;15.81;32.34
58761;BME280;44529;47.464;19.014;2023-03-19T14:10:45;100284.44;;;16.00;31.78
58761;BME280;44529;47.464;19.014;2023-03-19T14:13:50;100270.16;;;16.18;31.22
58761;BME280;44529;47.464;19.014;2023-03-19T14:16:53;100267.78;;;16.33;31.71
58761;BME280;44529;47.464;19.014;2023-03-19T14:20:02;100270.41;;;16.29;31.68
58761;BME280;44529;47.464;19.014;2023-03-19T14:23:18;100271.16;;;15.98;31.21
58761;BME280;44529;47.464;19.014;2023-03-19T14:26:26;100280.25;;;15.90;31.87
58761;BME280;44529;47.464;19.014;2023-03-19T14:29:33;100274.78;;;15.62;31.83
58761;BME280;44529;47.464;19.014;2023-03-19T14:32:38;100270.22;;;15.54;31.87
58761;BME280;44529;47.464;19.014;2023-03-19T14:35:45;100269.66;;;15.48;32.19
58761;BME280;44529;47.464;19.014;2023-03-19T14:38:50;100273.19;;;15.36;32.14
58761;BME280;44529;47.464;19.014;2023-03-19T14:42:27;100265.03;;;15.24;32.58
58761;BME280;44529;47.464;19.014;2023-03-19T14:49:11;100264.66;;;15.50;32.17
58761;BME280;44529;47.464;19.014;2023-03-19T14:52:27;100266.72;;;15.53;32.40
58761;BME280;44529;47.464;19.014;2023-03-19T14:55:36;100274.09;;;15.65;32.19
58761;BME280;44529;47.464;19.014;2023-03-19T14:58:56;100269.06;;;15.79;32.47
58761;BME280;44529;47.464;19.014;2023-03-19T15:01:59;100269.06;;;15.79;31.84
58761;BME280;44529;47.464;19.014;2023-03-19T15:05:14;100269.66;;;16.01;32.32
58761;BME280;44529;47.464;19.014;2023-03-19T15:08:21;100270.03;;;15.87;31.76
58761;BME280;44529;47.464;19.014;2023-03-19T15:11:35;100268.06;;;16.00;32.08
58761;BME280;44529;47.464;19.014;2023-03-19T15:15:10;100268.16;;;16.03;31.78
58761;BME280;44529;47.464;19.014;2023-03-19T15:18:14;100263.16;;;16.05;33.18
58761;BME280;44529;47.464;19.014;2023-03-19T15:21:19;100266.38;;;15.95;32.41
58761;BME280;44529;47.464;19.014;2023-03-19T15:24:22;100271.78;;;15.79;32.68
58761;BME280;44529;47.464;19.014;2023-03-19T15:27:26;100269.28;;;15.74;32.84
58761;BME280;44529;47.464;19.014;2023-03-19T15:30:28;100268.69;;;15.81;33.03
58761;BME280;44529;47.464;19.014;2023-03-19T15:33:39;100258.97;;;15.67;33.28
58761;BME280;44529;47.464;19.014;2023-03-19T15:36:51;100268.38;;;15.58;33.24
58761;BME280;44529;47.464;19.014;2023-03-19T15:39:54;100272.94;;;15.54;33.47
58761;BME280;44529;47.464;19.014;2023-03-19T15:42:59;100275.91;;;15.49;34.45
58761;BME280;44529;47.464;19.014;2023-03-19T15:46:05;100269.66;;;15.48;33.71
58761;BME280;44529;47.464;19.014;2023-03-19T15:52:15;100266.38;;;15.42;34.18
58761;BME280;44529;47.464;19.014;2023-03-19T15:55:19;100280.94;;;15.34;34.05
58761;BME280;44529;47.464;19.014;2023-03-19T15:58:30;100286.47;;;15.26;34.37
58761;BME280;44529;47.464;19.014;2023-03-19T16:01:33;100279.34;;;15.21;34.07
58761;BME280;44529;47.464;19.014;2023-03-19T16:04:35;100274.56;;;15.18;34.45
58761;BME280;44529;47.464;19.014;2023-03-19T16:08:22;100280.72;;;15.15;34.91
58761;BME280;44529;47.464;19.014;2023-03-19T16:11:33;100280.50;;;15.08;35.37
58761;BME280;44529;47.464;19.014;2023-03-19T16:14:41;100281.37;;;15.00;36.07
58761;BME280;44529;47.464;19.014;2023-03-19T16:17:43;100282.72;;;14.94;36.24
58761;BME280;44529;47.464;19.014;2023-03-19T16:21:09;100281.72;;;14.86;36.36
58761;BME280;44529;47.464;19.014;2023-03-19T16:27:36;100281.81;;;14.65;36.67
58761;BME280;44529;47.464;19.014;2023-03-19T16:30:45;100295.84;;;14.55;37.30
58761;BME280;44529;47.464;19.014;2023-03-19T16:33:51;100283.12;;;14.47;37.34
58761;BME280;44529;47.464;19.014;2023-03-19T16:36:54;100290.22;;;14.39;37.34
58761;BME280;44529;47.464;19.014;2023-03-19T16:40:48;100289.97;;;14.32;37.25
58761;BME280;44529;47.464;19.014;2023-03-19T16:43:31;100287.44;;;14.27;37.13
58761;BME280;44529;47.464;19.014;2023-03-19T16:46:35;100290.12;;;14.15;38.12
58761;BME280;44529;47.464;19.014;2023-03-19T16:49:37;100307.78;;;14.08;39.11
58761;BME280;44529;47.464;19.014;2023-03-19T16:52:41;100299.38;;;14.01;38.59
58761;BME280;44529;47.464;19.014;2023-03-19T16:55:44;100308.06;;;13.95;38.25
58761;BME280;44529;47.464;19.014;2023-03-19T16:58:46;100314.81;;;13.89;38.47
58761;BME280;44529;47.464;19.014;2023-03-19T17:01:49;100305.28;;;13.82;38.15
58761;BME280;44529;47.464;19.014;2023-03-19T17:04:51;100305.16;;;13.79;38.37
58761;BME280;44529;47.464;19.014;2023-03-19T17:07:54;100309.78;;;13.78;38.52
58761;BME280;44529;47.464;19.014;2023-03-19T17:10:57;100318.41;;;13.80;39.00
58761;BME280;44529;47.464;19.014;2023-03-19T17:14:00;100317.66;;;13.71;40.06
58761;BME280;44529;47.464;19.014;2023-03-19T17:17:03;100317.38;;;13.64;40.96
58761;BME280;44529;47.464;19.014;2023-03-19T17:20:14;100317.25;;;13.61;41.31
58761;BME280;44529;47.464;19.014;2023-03-19T17:23:17;100320.09;;;13.64;41.54
58761;BME280;44529;47.464;19.014;2023-03-19T17:26:25;100319.31;;;13.64;42.25
58761;BME280;44529;47.464;19.014;2023-03-19T17:29:29;100317.44;;;13.55;43.18
58761;BME280;44529;47.464;19.014;2023-03-19T17:32:32;100323.25;;;13.45;43.64
58761;BME280;44529;47.464;19.014;2023-03-19T17:35:34;100321.25;;;13.34;44.25
58761;BME280;44529;47.464;19.014;2023-03-19T17:38:37;100317.78;;;13.24;44.82